Columbia, KY (42728)

12:11 PM CDT en Agosto 03, 2015 (GMT -0500)
KKYCOLUM2 | | Change Station
CLOSE
Current Station
Estación meteorológica personal
Location: Columbia, KY
Altura: 1033 ft
Estaciones meteorológicas cercanas

Alt 1033 ft 37.03 °N, 85.39 °W | Updated 8 minutes ago

Despejado
Despejado
84.6 ° F
Sensación térmica 90 ° F
N
6.0
Viento Variable Viento desde Sur
Gusts 8.0 mph

Hoy
Alta -- | Baja -- ° F
--% Posibilidad de precipitaciones
Ayer
Alta -- | Baja -- ° F
Precip. -- pul
5:47 AM 7:46 PM
Gibosa menguante, 85% visible
Presión 29.98 pul
Visibilidad 10.0 Millas
Nubes Despejado
Índice de calor 90 ° F
Punto de rocío 72 ° F
Humedad 65%
Precipitaciones 0.00 pul
Espesor de la nieve No disponible.
UV 6.8 de una escala de 12
Polen 5.00 de una escala de 12
Calidad del aire No disponible.
Flu Activity No disponible.
METAR KSME 031655Z AUTO 26003KT 10SM CLR 27/16 A2998 RMK AO2

More Conditions Fewer Conditions

Presión 29.98 pul
Visibilidad 10.0 Millas
Nubes Despejado
Índice de calor 90 ° F
Punto de rocío 72 ° F
Humedad 65%
Precipitaciones 0.00 pul
Espesor de la nieve No disponible.
UV 6.8 de una escala de 12
Polen 5.00 de una escala de 12
Calidad del aire No disponible.
Flu Activity No disponible.
METAR KSME 031655Z AUTO 26003KT 10SM CLR 27/16 A2998 RMK AO2

More Conditions Fewer Conditions

10-Day Weather Forecast

×

Almanac

Astronomía

Aug. 03, 2015 Salida Puesta
Hora real
Crepúsculo civil
Crepúsculo náutico
Crepúsculo astronómico
Luna
Horas de luz
Horas de luz
Tomorrow will be .
, % of the Moon is Illuminated

Extremos de hoy

Máximos del estado Bajos del estado

Community

WunderPhotos

Upload Photos

1,843,679 ¡fotos cargadas!

WunderBlogs® & News

Nearby

Calidad del aire

  Calidad del aire Índice AQ Contaminante
Not available.

Grosos de nieve

Estación Profundido Altura

Actividad de terremotos

Ciudad Distance Mag. Tiempo y dato
Magnitud mínima muestra es 2,5.

Temperaturas de aguas costeras

Lugar Temperatura

Stations

Estaciones meteorológicas cercanas

Ubicación de la estación Temp. Vientos helados Punto de rocío Humedad Viento Precip. Alt Actualizado Tipo